ロメ空港の過去48時間の天気

ロメ空港 (Lome)

現在時刻: 1/21 04:11 GMT (1/21 04:11 UTC) 以下の時間は現地時間です。

過去48時間のMETAR気象情報
時間 風向 風速(m/s) 視程 気温(℃) 湿度(%) 気圧(hPa) 天気現象
21 03:00 2 6000m 25 94 1011
21 02:00 1 6000m 26 89 1011
21 01:00 西 2 7000m 27 79 1011
20 23:00 南南東 2 7000m 28 74 1012
20 22:00 南南東 2 7000m 28 79 1012
20 21:00 南南東 3 7000m 29 79 1012
20 20:00 南南東 3 7000m 29 79 1011
20 19:00 南南東 4 6000m 29 74 1010
20 18:00 4 6000m 29 70 1009
20 17:00 南南東 3 7000m 30 70 1008
20 16:00 南南東 5 7000m 30 70 1008
20 15:00 南南東 5 7000m 31 66 1008
20 14:00 南東 4 7000m 32 59 1008
20 13:00 南東 2 8000m 34 53 1009
20 12:00 3 8000m 33 53 1010
20 11:00 2 8000m 31 62 1012
20 10:00 4 6000m 29 79 1012
20 09:00 北北東 3 4500m 27 89 1012 もや
20 08:00 北北東 3 900m 25 100 1012
20 07:00 3 900m 25 94 1012
20 06:00 3 4500m 25 89 1011 もや
20 05:00 北北西 2 6000m 25 94 1010
20 04:00 不定 1 6000m 25 94 1010
20 03:00 1 7000m 26 89 1010
20 02:00 不定 1 10km以上 27 89 1010
20 01:00 南南東 2 10km以上 28 84 1011
20 00:00 南東 2 10km以上 28 84 1011
19 23:00 南東 3 10km以上 28 84 1011
19 22:00 南東 3 10km以上 28 84 1012
19 21:00 南東 3 10km以上 29 79 1012
19 20:00 南東 3 10km以上 29 79 1011
19 19:00 南南東 3 10km以上 29 79 1010
19 18:00 南南東 3 10km以上 29 79 1009
19 17:00 南南東 3 10km以上 30 70 1009
19 16:00 南東 4 10km以上 31 66 1008
19 15:00 南東 3 10km以上 33 56 1009
19 14:00 3 8000m 34 47 1009
19 13:00 北北東 3 8000m 34 47 1011
19 12:00 北北東 3 8000m 33 53 1012
19 11:00 4 8000m 31 62 1012
19 10:00 4 8000m 30 75 1013
19 09:00 4 4500m 27 89 1013 もや
19 08:00 3 900m 26 94 1013
19 07:00 2 2200m 25 94 1012 もや
19 06:00 1 3200m 24 94 1011 もや
19 05:00 北北東 1 6000m 25 94 1011
DXXX 210300Z 35003KT 6000 FEW011 25/24 Q1011 NOSIG
DXXX 210200Z 35002KT 6000 FEW011 26/24 Q1011 NOSIG
DXXX 210100Z 27003KT 7000 FEW013 27/23 Q1011 NOSIG
DXXX 202300Z 16004KT 7000 FEW013 28/23 Q1012 NOSIG
DXXX 202200Z 16004KT 7000 FEW013 28/24 Q1012 NOSIG
DXXX 202100Z 16005KT 130V200 7000 FEW013 29/25 Q1012 NOSIG
DXXX 202000Z 15005KT 120V190 7000 FEW013 29/25 Q1011 NOSIG
DXXX 201900Z 16007KT 6000 FEW013 29/24 Q1010 NOSIG
DXXX 201800Z 17007KT 140V210 6000 FEW014 29/23 Q1009 NOSIG
DXXX 201700Z 16006KT 130V190 7000 FEW014 30/24 Q1008 NOSIG
DXXX 201600Z 15009KT 110V180 7000 FEW015 30/24 Q1008 NOSIG
DXXX 201500Z 15009KT 120V190 7000 FEW015 31/24 Q1008 NOSIG
DXXX 201400Z 13007KT 100V160 7000 FEW015 32/23 Q1008 NOSIG
DXXX 201300Z 13004KT 060V220 8000 FEW015 34/23 Q1009 NOSIG
DXXX 201200Z 08006KT 040V130 8000 SCT015 33/22 Q1010 NOSIG
DXXX 201100Z 35004KT 290V080 8000 SCT015 31/23 Q1012 NOSIG
DXXX 201000Z 36007KT 330V060 6000 FEW013 29/25 Q1012 NOSIG
DXXX 200900Z 02005KT 4500 BR SCT012 27/25 Q1012 BECMG 6000 NSW
DXXX 200800Z 02006KT 0900 R22/P2000N FG SCT007 25/25 Q1012 NOSIG
DXXX 200700Z 36006KT 0900 0500NE R22/0600N FG SCT008 25/24 Q1012 BECMG 600
DXXX 200600Z 35005KT 4500 BR FEW010 25/23 Q1011 NOSIG
DXXX 200500Z 34004KT 6000 FEW010 25/24 Q1010 BECMG 4000 BR
DXXX 200400Z VRB02KT 6000 SCT010 25/24 Q1010 BECMG 4000 BR
DXXX 200300Z 01002KT 7000 SCT010 26/24 Q1010 NOSIG
DXXX 200200Z VRB01KT 9999 SCT012 27/25 Q1010 NOSIG
DXXX 200100Z 16004KT 140V210 9999 FEW012 28/25 Q1011 NOSIG
DXXX 200000Z 14004KT 090V170 9999 FEW012 28/25 Q1011 NOSIG
DXXX 192300Z 14006KT 100V180 9999 FEW012 28/25 Q1011 NOSIG
DXXX 192200Z 14005KT 110V180 9999 FEW013 28/25 Q1012 NOSIG
DXXX 192100Z 14006KT 110V180 9999 FEW013 29/25 Q1012 NOSIG
DXXX 192000Z 13005KT 100V160 9999 FEW013 29/25 Q1011 NOSIG
DXXX 191900Z 15005KT 110V190 9999 FEW014 29/25 Q1010 NOSIG
DXXX 191800Z 15006KT 110V200 9999 FEW014 29/25 Q1009 NOSIG
DXXX 191700Z 15006KT 110V180 9999 FEW015 30/24 Q1009 NOSIG
DXXX 191600Z 13007KT 100V170 9999 FEW015 31/24 Q1008 NOSIG
DXXX 191500Z 14006KT 090V180 9999 FEW017 33/23 Q1009 NOSIG
DXXX 191400Z VRB05KT 8000 FEW017 34/21 Q1009 NOSIG
DXXX 191300Z 02005KT 330V120 8000 FEW017 34/21 Q1011 NOSIG
DXXX 191200Z 03005KT 350V120 8000 FEW015 33/22 Q1012 NOSIG
DXXX 191100Z 36008KT 330V030 8000 SCT015 31/23 Q1012 NOSIG
DXXX 191000Z 36008KT 340V040 8000 FEW013 30/25 Q1013 NOSIG
DXXX 190900Z 35007KT 320V040 4500 BR SCT010 27/25 Q1013 BECMG 6000 NSW
DXXX 190800Z 01005KT 0900 R22/1900U FG SCT008 26/25 Q1013 BECMG 1700 BR
DXXX 190700Z 01004KT 2200 BR FEW010 25/24 Q1012 TEMPO 1200 BR
DXXX 190600Z 01002KT 3200 BR FEW010 24/23 Q1011 TEMPO 2200 BR
DXXX 190500Z 02002KT 6000 FEW010 25/24 Q1011 BECMG 4000 BR